< Typhoon 196424 1964 Season Typhoon 196426 >
Typhoon 196425 (FRAN)
General InformationTrack Information on Google Maps || Disaster Info.ResourceGoogle EarthGE AnimationAtom FeedGeoJSON
Detalied Best Track (Time Zone = UTC)
Year Month Day Hour Lat. Long. Pressure (hPa) Wind (kt) Class Image Chart
1964 10 13 00 13.0 165.0 1008 0 2 -- Chart
1964 10 13 06 13.3 164.5 1008 0 2 -- Chart
1964 10 13 12 13.7 164.1 1008 0 2 -- Chart
1964 10 13 18 13.9 163.7 1008 0 2 -- Chart
1964 10 14 00 14.3 163.5 1008 0 2 -- Chart
1964 10 14 06 14.6 163.3 1008 0 2 -- Chart
1964 10 14 12 15.0 163.1 1008 0 2 -- Chart
1964 10 14 18 15.5 163.1 1008 0 2 -- Chart
1964 10 15 00 16.0 163.0 1008 0 2 -- Chart
1964 10 15 06 16.5 163.0 1006 0 2 -- Chart
1964 10 15 12 17.0 162.9 1006 0 2 -- Chart
1964 10 15 18 17.5 162.7 1006 0 2 -- Chart
1964 10 16 00 17.9 162.2 1006 0 2 -- Chart
1964 10 16 06 18.3 161.5 1004 0 2 -- Chart
1964 10 16 12 18.8 160.6 1004 0 2 -- Chart
1964 10 16 18 19.2 159.8 1004 0 9 -- Chart
1964 10 17 00 19.7 159.3 1000 0 9 -- Chart
1964 10 17 06 20.7 159.4 998 0 9 -- Chart
1964 10 17 12 21.5 159.5 998 0 9 -- Chart
1964 10 17 18 21.9 159.0 998 0 9 -- Chart
1964 10 18 00 22.5 158.8 998 0 9 -- Chart
1964 10 18 06 23.4 158.4 996 0 9 -- Chart
1964 10 18 12 24.2 158.1 996 0 9 -- Chart
1964 10 18 18 25.0 157.9 996 0 9 -- Chart
1964 10 19 00 26.0 157.4 996 0 9 -- Chart
1964 10 19 06 26.7 157.0 996 0 9 -- Chart
1964 10 19 12 28.0 156.6 996 0 9 -- Chart
1964 10 19 18 29.3 156.3 996 0 9 -- Chart
1964 10 20 00 30.5 157.1 996 0 9 -- Chart
1964 10 20 06 31.4 158.4 996 0 9 -- Chart
1964 10 20 12 32.2 160.0 996 0 9 -- Chart
1964 10 20 18 32.8 162.1 996 0 9 -- Chart
1964 10 21 00 33.7 164.5 996 0 9 -- Chart
1964 10 21 06 34.0 167.0 996 0 6 -- Chart
1964 10 21 12 34.2 169.5 996 0 6 -- Chart
1964 10 21 18 34.2 172.1 996 0 6 -- Chart
1964 10 22 00 34.2 174.7 996 0 6 -- Chart
1964 10 22 06 34.2 176.8 996 0 6 -- Chart
1964 10 22 12 34.3 178.6 996 0 6 -- Chart
1964 10 22 18 34.4 179.9 996 0 6 -- Chart
1964 10 23 00 34.6 181.3 1000 0 6 -- Chart
Japan Meteorological Agency Best Track Data | Correction Date : 1991-07-16
< Typhoon 196424 1964 Season Typhoon 196426 >

Help